GCXOGMML

Guest
Details From GCXO - Tenerife Norte - Los Rodeos
To GMML - HASSAN I
Flight Number -
Tags generated
Created
Modified
Stats Distance 185 nm / 342 km
Max Altitude 23,000 ft / 7,010 m
Waypoints 4
Social Downloads 2
Likes 0
Share VATSIM

Download

Looking for another format? Having issues loading an existing format? Contact us
Advertisement - Login to hide

Notes

Basic altitude profile: - Ascent Rate: 2500ft/min - Ascent Speed: 250kts - Cruise Altitude: 35000ft - Cruise Speed: 420kts - Descent Rate: 1500ft/min - Descent Speed: 250kts Options: - Use NATs: yes - Use PACOTS: yes - Use low airways: no - Use high airways: yes

Route

GCXO GDV 2800N01500W GMML

ID Type Via Altitude Latitude Longitude Leg Dist Tot Dist Heading (true) Name
O GCXO APT - 0 ft / 0 m 28.48266˚ -16.34154˚ - 0 nm - Tenerife Norte - Los Rodeos
GDV VOR - 19,300 ft / 5,883 m 28.07708˚ -15.42899˚ 54 nm 54 nm 117° / 117° GRAN CANARIA VOR-DME
2800N01500W LATLON - 23,000 ft / 7,010 m 28.00000˚ -15.00000˚ 23 nm 77 nm 101° / 102° -
O GMML APT - 0 ft / 0 m 27.14365˚ -13.22540˚ 107 nm 184 nm 118° / 119° HASSAN I

Altitude Profile

Advertisement - Login to hide

Weather


0- 5 10 15 20 25 30 35+ Temperature / ° C

Clouds and Precipitation
Forecast for 2017-12-16 00:00 UTC. Updated an hour ago

Ground ~20,000 ft ~40,000 ft Winds

GCXO

Details ICAO GCXO (TFN)
Name Tenerife Norte - Los Rodeos
Region Canary Islands
Timezone Atlantic/Canary (UTC+0.0)
Stats Elevation 2,076 ft / 633 m (AMSL)
Location 28.482656° -16.341541°
Runways 1
Magnetic Variation 5.002° W

METAR

GCXO 152200Z 28017KT 9999 SCT025 14/12 Q1025 NOSIG

Decode

TAF

TAF GCXO 152000Z 1521/1621 30017KT 9999 SCT015 TX18/1614Z TN13/1606Z PROB40 TEMPO 1521/1609 3500 DZ BCFG BKN007 PROB40 TEMPO 1612/1621 3500 RA BKN004

Decode

Departure Runways

ID Width Length Bearing (true) Bearing (mag) Surface Threshold Offset Overrun Length
12 148 ft / 45 m 11,165 ft / 3,403 m 110.67° 115.67° Asphalt 0 ft / 0 m 197 ft / 60 m
30 148 ft / 45 m 11,165 ft / 3,403 m 290.69° 295.69° Asphalt 0 ft / 0 m 197 ft / 60 m

GMML

Details ICAO GMML (EUN)
Name HASSAN I
Region Morocco
Timezone Africa/El_Aaiun (UTC+0.0)
Stats Elevation 207 ft / 63 m (AMSL)
Location 27.143650° -13.225399°
Runways 2
Magnetic Variation 3.957° W

METAR

GMML 152200Z 01006KT 8000 BKN020 17/14 Q1023 NOSIG

Decode

TAF

TAF GMML 151700Z 1518/1624 02015KT 9999 BKN027 BECMG 1521/1600 36005KT BKN010 PROB40 1600/1609 3000 BR

Decode

Destination Runways

ID Width Length Bearing (true) Bearing (mag) Surface Threshold Offset Overrun Length
02 148 ft / 45 m 8,890 ft / 2,710 m 16.42° 20.38° Asphalt 0 ft / 0 m 200 ft / 61 m
04 148 ft / 45 m 8,221 ft / 2,506 m 31.58° 35.54° Asphalt 0 ft / 0 m 0 ft / 0 m
20 148 ft / 45 m 8,890 ft / 2,710 m 196.43° 200.39° Asphalt 0 ft / 0 m 200 ft / 61 m
22 148 ft / 45 m 8,221 ft / 2,506 m 211.59° 215.55° Asphalt 0 ft / 0 m 658 ft / 201 m

Popular Alternatives